createdAt,value
2023-03-13T00:01:57.664Z,-2.99
2023-03-13T00:04:25.563Z,-2.96
2023-03-13T00:06:53.050Z,-2.93
2023-03-13T00:09:20.856Z,-2.94
2023-03-13T00:11:48.318Z,-2.92
2023-03-13T00:14:15.771Z,-2.97
2023-03-13T00:16:43.519Z,-2.99
2023-03-13T00:19:11.350Z,-3.06
2023-03-13T00:21:38.617Z,-3.06
2023-03-13T00:24:06.027Z,-3.12
2023-03-13T00:26:33.490Z,-3.14
2023-03-13T00:29:01.002Z,-3.20
2023-03-13T00:31:30.743Z,-3.25
2023-03-13T00:34:00.818Z,-3.32
2023-03-13T00:36:33.688Z,-3.35
2023-03-13T00:39:05.666Z,-3.40
2023-03-13T00:41:37.098Z,-3.42
2023-03-13T00:44:06.428Z,-3.44
2023-03-13T00:46:33.761Z,-3.45
2023-03-13T00:49:01.382Z,-3.49
2023-03-13T00:51:29.191Z,-3.56
2023-03-13T00:54:00.501Z,-3.57
2023-03-13T00:56:28.936Z,-3.66
2023-03-13T00:58:56.489Z,-3.66
2023-03-13T01:01:30.206Z,-3.70
2023-03-13T01:04:01.660Z,-3.71
2023-03-13T01:06:33.178Z,-3.73
2023-03-13T01:09:02.141Z,-3.77
2023-03-13T01:11:32.555Z,-3.75
2023-03-13T01:14:06.324Z,-3.73
2023-03-13T01:16:35.611Z,-3.70
2023-03-13T01:19:13.128Z,-3.75
2023-03-13T01:21:42.609Z,-3.72
2023-03-13T01:24:10.393Z,-3.71
2023-03-13T01:26:38.749Z,-3.69
2023-03-13T01:29:06.162Z,-3.76
2023-03-13T01:31:35.725Z,-3.68
2023-03-13T01:34:07.038Z,-3.70
2023-03-13T01:36:37.215Z,-3.72
2023-03-13T01:39:06.304Z,-3.75
2023-03-13T01:41:33.511Z,-3.82
2023-03-13T01:44:01.798Z,-3.89
2023-03-13T01:46:33.935Z,-4.01
2023-03-13T01:49:36.603Z,-4.13
2023-03-13T01:52:28.477Z,-4.27
2023-03-13T01:55:09.678Z,-4.39
2023-03-13T01:57:44.636Z,-4.50
2023-03-13T02:00:20.576Z,-4.61
2023-03-13T02:02:52.272Z,-4.75
2023-03-13T02:05:25.376Z,-4.83
2023-03-13T02:08:01.070Z,-4.92
2023-03-13T02:10:31.749Z,-4.95
2023-03-13T02:13:01.224Z,-5.02
2023-03-13T02:15:29.629Z,-5.09
2023-03-13T02:17:57.954Z,-5.15
2023-03-13T02:20:25.732Z,-5.18
2023-03-13T02:23:21.730Z,-5.29
2023-03-13T02:25:51.739Z,-5.49
2023-03-13T02:28:33.561Z,-5.64
2023-03-13T02:31:04.512Z,-5.75
2023-03-13T02:33:37.123Z,-5.83
2023-03-13T02:36:07.376Z,-5.91
2023-03-13T02:39:00.456Z,-6.04
2023-03-13T02:41:30.097Z,-6.16
2023-03-13T02:43:59.748Z,-6.28
2023-03-13T02:46:27.389Z,-6.38
2023-03-13T02:48:57.270Z,-6.49
2023-03-13T02:51:42.848Z,-6.60
2023-03-13T02:54:18.682Z,-6.71
2023-03-13T02:56:49.599Z,-6.79
2023-03-13T02:59:17.393Z,-6.83
2023-03-13T03:01:46.788Z,-6.84
2023-03-13T03:04:14.125Z,-6.81
2023-03-13T03:06:41.658Z,-6.80
2023-03-13T03:09:09.348Z,-6.80
2023-03-13T03:11:38.731Z,-6.82
2023-03-13T03:14:10.530Z,-6.86
2023-03-13T03:16:42.974Z,-6.91
2023-03-13T03:19:12.854Z,-6.83
2023-03-13T03:21:40.863Z,-6.78
2023-03-13T03:24:08.669Z,-6.68
2023-03-13T03:26:39.337Z,-6.56
2023-03-13T03:29:13.713Z,-6.50
2023-03-13T03:31:42.002Z,-6.44
2023-03-13T03:34:09.964Z,-6.38
2023-03-13T03:36:37.336Z,-6.33
2023-03-13T03:39:06.217Z,-6.30
2023-03-13T03:41:34.673Z,-6.28
2023-03-13T03:44:02.477Z,-6.36
2023-03-13T03:46:40.166Z,-6.40
2023-03-13T03:49:09.849Z,-6.48
2023-03-13T03:51:37.468Z,-6.52
2023-03-13T03:54:06.318Z,-6.44
2023-03-13T03:56:34.168Z,-6.45
2023-03-13T03:59:02.004Z,-6.49
2023-03-13T04:01:48.768Z,-6.53
2023-03-13T04:04:21.530Z,-6.51
2023-03-13T04:06:53.514Z,-6.51
2023-03-13T04:09:21.644Z,-6.56
2023-03-13T04:11:49.262Z,-6.55
2023-03-13T04:14:16.519Z,-6.56
2023-03-13T04:16:44.387Z,-6.56
2023-03-13T04:19:14.381Z,-6.53
2023-03-13T04:21:43.545Z,-6.48
2023-03-13T04:24:15.283Z,-6.42
2023-03-13T04:26:44.685Z,-6.38
2023-03-13T04:29:12.351Z,-6.33
2023-03-13T04:31:58.155Z,-6.26
2023-03-13T04:34:44.356Z,-6.14
2023-03-13T04:37:28.865Z,-6.02
2023-03-13T04:40:34.595Z,-5.70
2023-03-13T04:43:25.600Z,-5.35
2023-03-13T04:46:15.857Z,-5.01
2023-03-13T04:49:03.736Z,-4.54
2023-03-13T04:52:10.080Z,-4.03
2023-03-13T04:54:53.167Z,-3.50
2023-03-13T04:57:38.570Z,-3.02
2023-03-13T05:00:41.483Z,-2.39
2023-03-13T05:03:31.806Z,-2.07
2023-03-13T05:06:09.945Z,-1.69
2023-03-13T05:08:56.428Z,-1.37
2023-03-13T05:11:46.704Z,-1.15
2023-03-13T05:14:26.077Z,-1.07
2023-03-13T05:17:13.284Z,-1.00
2023-03-13T05:19:59.961Z,-0.97
2023-03-13T05:22:50.464Z,-1.04
2023-03-13T05:25:41.202Z,-1.21
2023-03-13T05:28:31.386Z,-1.32
2023-03-13T05:31:17.854Z,-1.37
2023-03-13T05:34:04.409Z,-1.41
2023-03-13T05:36:55.092Z,-1.26
2023-03-13T05:39:34.847Z,-0.93
2023-03-13T05:42:19.145Z,-0.47
2023-03-13T05:45:09.444Z,-0.09
2023-03-13T05:47:45.880Z,0.23
2023-03-13T05:50:33.356Z,0.60
2023-03-13T05:53:19.322Z,0.92
2023-03-13T05:56:15.430Z,1.25
2023-03-13T05:58:46.160Z,1.48
2023-03-13T06:01:31.989Z,1.87
2023-03-13T06:04:13.535Z,2.05
2023-03-13T06:06:41.725Z,2.31
2023-03-13T06:09:12.065Z,2.53
2023-03-13T06:11:40.337Z,2.89
2023-03-13T06:14:08.820Z,3.29
2023-03-13T06:16:42.187Z,3.65
2023-03-13T06:19:16.250Z,3.74
2023-03-13T06:21:44.384Z,3.63
2023-03-13T06:24:12.401Z,3.52
2023-03-13T06:26:40.161Z,3.35
2023-03-13T06:29:08.001Z,3.39
2023-03-13T06:31:36.508Z,3.40
2023-03-13T06:34:03.821Z,3.39
2023-03-13T06:36:31.785Z,3.50
2023-03-13T06:38:59.180Z,3.47
2023-03-13T06:41:28.016Z,3.59
2023-03-13T06:43:56.088Z,3.71
2023-03-13T06:46:25.109Z,3.93
2023-03-13T06:48:53.391Z,4.23
2023-03-13T06:51:22.483Z,4.62
2023-03-13T06:53:52.568Z,4.73
2023-03-13T06:56:22.020Z,5.01
2023-03-13T06:58:49.837Z,5.25
2023-03-13T07:01:18.327Z,5.39
2023-03-13T07:03:47.175Z,5.37
2023-03-13T07:06:16.584Z,5.27
2023-03-13T07:08:44.584Z,5.21
2023-03-13T07:11:14.076Z,5.12
2023-03-13T07:13:41.723Z,5.18
2023-03-13T07:16:12.421Z,5.50
2023-03-13T07:18:45.084Z,5.61
2023-03-13T07:21:13.251Z,5.78
2023-03-13T07:23:41.176Z,5.81
2023-03-13T07:26:12.438Z,6.03
2023-03-13T07:28:39.970Z,5.88
2023-03-13T07:31:13.859Z,6.23
2023-03-13T07:33:41.936Z,6.37
2023-03-13T07:36:10.538Z,6.22
2023-03-13T07:38:38.899Z,6.43
2023-03-13T07:41:07.188Z,6.78
2023-03-13T07:43:34.887Z,6.63
2023-03-13T07:46:06.099Z,6.93
2023-03-13T07:48:40.307Z,7.24
2023-03-13T07:51:12.888Z,7.37
2023-03-13T07:53:41.039Z,7.41
2023-03-13T07:56:12.346Z,7.31
2023-03-13T07:58:42.073Z,6.90
2023-03-13T08:01:15.658Z,6.89
2023-03-13T08:03:46.435Z,6.77
2023-03-13T08:06:19.448Z,6.94
2023-03-13T08:08:48.258Z,6.83
2023-03-13T08:11:21.786Z,6.70
2023-03-13T08:13:52.784Z,6.85
2023-03-13T08:16:30.356Z,7.10
2023-03-13T08:18:59.653Z,7.24
2023-03-13T08:21:31.807Z,7.20
2023-03-13T08:24:07.752Z,7.35
2023-03-13T08:26:38.214Z,7.38
2023-03-13T08:29:09.438Z,7.07
2023-03-13T08:31:43.196Z,7.30
2023-03-13T08:34:13.030Z,7.23
2023-03-13T08:36:41.722Z,7.16
2023-03-13T08:39:17.119Z,7.18
2023-03-13T08:41:45.110Z,7.34
2023-03-13T08:44:15.972Z,7.34
2023-03-13T08:46:44.763Z,7.53
2023-03-13T08:49:13.646Z,7.59
2023-03-13T08:51:41.544Z,7.30
2023-03-13T08:54:09.001Z,7.57
2023-03-13T08:56:38.109Z,7.84
2023-03-13T08:59:07.080Z,7.85
2023-03-13T09:01:36.020Z,7.83
2023-03-13T09:04:05.667Z,7.90
2023-03-13T09:06:34.861Z,7.98
2023-03-13T09:09:03.962Z,8.00
2023-03-13T09:11:31.868Z,7.89
2023-03-13T09:13:59.900Z,7.96
2023-03-13T09:16:32.754Z,8.34
2023-03-13T09:19:00.902Z,8.57
2023-03-13T09:21:31.334Z,8.53
2023-03-13T09:23:59.420Z,8.51
2023-03-13T09:26:28.397Z,8.63
2023-03-13T09:28:56.960Z,8.54
2023-03-13T09:31:27.414Z,8.89
2023-03-13T09:33:55.014Z,8.72
2023-03-13T09:36:26.937Z,8.69
2023-03-13T09:38:56.932Z,8.83
2023-03-13T09:41:38.019Z,8.63
2023-03-13T09:44:19.965Z,8.44
2023-03-13T09:47:05.519Z,8.32
2023-03-13T09:49:41.904Z,8.33
2023-03-13T09:52:26.117Z,8.33
2023-03-13T09:55:03.445Z,8.11
2023-03-13T09:57:57.220Z,8.23
2023-03-13T10:00:38.716Z,8.20
2023-03-13T10:03:18.844Z,8.39
2023-03-13T10:06:00.734Z,8.39
2023-03-13T10:08:32.601Z,8.27
2023-03-13T10:11:10.663Z,8.51
2023-03-13T10:13:46.601Z,8.70
2023-03-13T10:16:49.297Z,8.79
2023-03-13T10:19:19.282Z,8.98
2023-03-13T10:21:54.273Z,9.09
2023-03-13T10:24:50.869Z,9.03
2023-03-13T10:27:18.711Z,9.17
2023-03-13T10:29:46.549Z,9.32
2023-03-13T10:32:17.268Z,9.29
2023-03-13T10:34:57.271Z,8.99
2023-03-13T10:37:30.458Z,9.18
2023-03-13T10:40:23.894Z,8.94
2023-03-13T10:42:53.996Z,8.72
2023-03-13T10:45:25.334Z,8.81
2023-03-13T10:47:57.905Z,8.84
2023-03-13T10:50:26.170Z,8.80
2023-03-13T10:52:55.337Z,8.71
2023-03-13T10:55:26.670Z,8.64
2023-03-13T10:58:02.001Z,8.71
2023-03-13T11:00:31.940Z,9.02
2023-03-13T11:02:59.512Z,9.03
2023-03-13T11:05:32.892Z,8.99
2023-03-13T11:08:12.990Z,8.91
2023-03-13T11:10:53.420Z,8.81
2023-03-13T11:13:44.857Z,8.80
2023-03-13T11:16:27.060Z,8.67
2023-03-13T11:19:03.675Z,8.66
2023-03-13T11:21:42.590Z,9.03
2023-03-13T11:24:26.277Z,9.25
2023-03-13T11:27:35.716Z,9.49
2023-03-13T11:30:12.458Z,9.39
2023-03-13T11:32:44.272Z,9.52
2023-03-13T11:35:51.600Z,9.56
2023-03-13T11:38:35.886Z,9.33
2023-03-13T11:41:31.003Z,9.08
2023-03-13T11:44:05.177Z,9.22
2023-03-13T11:47:29.321Z,9.41
2023-03-13T11:50:06.325Z,9.45
2023-03-13T11:52:46.808Z,9.46
2023-03-13T11:55:56.451Z,9.48
2023-03-13T11:58:32.567Z,9.44
2023-03-13T12:01:06.497Z,9.61
2023-03-13T12:03:48.899Z,9.44
2023-03-13T14:03:57.613Z,6.20
2023-03-13T14:06:30.198Z,6.33
2023-03-13T14:09:24.997Z,6.47
2023-03-13T14:15:36.977Z,6.75
2023-03-13T14:18:25.338Z,6.94
2023-03-13T14:21:08.087Z,7.01
2023-03-13T14:23:43.187Z,7.08
2023-03-13T14:26:29.646Z,7.18
2023-03-13T14:29:08.164Z,7.22
2023-03-13T14:31:43.874Z,7.20
2023-03-13T14:34:17.043Z,7.22
2023-03-13T14:36:49.775Z,7.20
2023-03-13T14:39:46.521Z,7.29
2023-03-13T14:42:17.859Z,7.23
2023-03-13T14:44:51.732Z,7.29
2023-03-13T14:47:21.738Z,7.25
2023-03-13T14:50:05.521Z,7.28
2023-03-13T14:52:41.122Z,7.29
2023-03-13T14:55:34.851Z,7.24
2023-03-13T14:58:08.836Z,7.26
2023-03-13T15:00:43.951Z,7.26
2023-03-13T15:03:23.142Z,7.29
2023-03-13T15:06:13.422Z,7.14
2023-03-13T15:08:45.572Z,7.10
2023-03-13T15:11:29.592Z,7.08
2023-03-13T15:13:59.401Z,7.08
2023-03-13T15:16:31.462Z,7.10
2023-03-13T15:18:59.194Z,6.97
2023-03-13T15:21:33.686Z,6.99
2023-03-13T15:24:12.455Z,6.95
2023-03-13T15:26:41.732Z,6.85
2023-03-13T15:29:12.146Z,6.88
2023-03-13T15:31:43.679Z,6.78
2023-03-13T15:34:15.228Z,6.75
2023-03-13T15:36:43.916Z,6.81
2023-03-13T15:39:20.855Z,6.77
2023-03-13T15:41:48.096Z,6.77
2023-03-13T15:44:17.273Z,6.63
2023-03-13T15:46:45.568Z,6.62
2023-03-13T15:49:15.115Z,6.60
2023-03-13T15:51:43.605Z,6.53
2023-03-13T15:54:12.625Z,6.46
2023-03-13T15:56:41.173Z,6.45
2023-03-13T15:59:13.265Z,6.36
2023-03-13T16:01:42.599Z,6.34
2023-03-13T16:04:12.599Z,6.24
2023-03-13T16:06:40.649Z,6.24
2023-03-13T16:09:08.399Z,6.20
2023-03-13T16:11:36.929Z,6.18
2023-03-13T16:14:04.837Z,6.12
2023-03-13T16:16:37.837Z,6.10
2023-03-13T16:19:08.158Z,6.03
2023-03-13T16:21:36.585Z,5.95
2023-03-13T16:24:04.665Z,5.96
2023-03-13T16:26:32.379Z,5.90
2023-03-13T16:28:59.643Z,5.87
2023-03-13T16:31:29.514Z,5.76
2023-03-13T16:33:58.372Z,5.70
2023-03-13T16:36:31.528Z,5.54
2023-03-13T16:39:00.112Z,5.44
2023-03-13T16:41:28.451Z,5.29
2023-03-13T16:43:56.604Z,5.22
2023-03-13T16:46:30.194Z,5.17
2023-03-13T16:48:58.687Z,5.00
2023-03-13T16:51:28.902Z,4.87
2023-03-13T16:54:00.466Z,4.76
2023-03-13T16:56:38.200Z,4.64
2023-03-13T16:59:10.650Z,4.55
2023-03-13T17:01:38.776Z,4.47
2023-03-13T17:04:07.033Z,4.43
2023-03-13T17:06:42.732Z,4.35
2023-03-13T17:09:16.804Z,4.17
2023-03-13T17:11:44.056Z,4.07
2023-03-13T17:14:11.830Z,4.05
2023-03-13T17:16:42.764Z,4.00
2023-03-13T17:19:17.192Z,4.00
2023-03-13T17:21:44.621Z,4.03
2023-03-13T17:24:11.953Z,4.03
2023-03-13T17:26:40.305Z,4.13
2023-03-13T17:29:08.902Z,4.22
2023-03-13T17:31:40.256Z,4.31
2023-03-13T17:34:08.646Z,4.36
2023-03-13T17:36:36.908Z,4.37
2023-03-13T17:39:09.022Z,4.47
2023-03-13T17:41:37.374Z,4.53
2023-03-13T17:44:04.995Z,4.58
2023-03-13T17:46:54.134Z,4.65
2023-03-13T17:49:21.326Z,4.67
2023-03-13T17:51:50.251Z,4.73
2023-03-13T17:54:18.955Z,4.76
2023-03-13T17:56:45.994Z,4.74
2023-03-13T17:59:18.273Z,4.72
2023-03-13T18:01:45.948Z,4.77
2023-03-13T18:04:13.775Z,4.71
2023-03-13T18:06:43.876Z,4.62
2023-03-13T18:09:21.545Z,4.63
2023-03-13T18:11:49.975Z,4.51
2023-03-13T18:14:17.296Z,4.43
2023-03-13T18:16:48.190Z,4.40
2023-03-13T18:19:17.860Z,4.26
2023-03-13T18:21:46.747Z,4.19
2023-03-13T18:24:15.717Z,4.09
2023-03-13T18:26:47.006Z,4.05
2023-03-13T18:29:26.977Z,4.03
2023-03-13T18:31:59.293Z,3.95
2023-03-13T18:34:28.068Z,3.90
2023-03-13T18:36:55.842Z,3.83
2023-03-13T18:39:23.314Z,3.76
2023-03-13T18:41:53.342Z,3.71
2023-03-13T18:44:21.215Z,3.71
2023-03-13T18:46:48.462Z,3.67
2023-03-13T18:49:20.326Z,3.61
2023-03-13T18:51:48.990Z,3.63
2023-03-13T18:54:16.486Z,3.59
2023-03-13T18:56:45.370Z,3.58
2023-03-13T18:59:16.224Z,3.54
2023-03-13T19:01:43.959Z,3.53
2023-03-13T19:04:11.262Z,3.55
2023-03-13T19:06:40.267Z,3.53
2023-03-13T19:09:41.202Z,3.52
2023-03-13T19:12:04.945Z,3.53
2023-03-13T19:14:32.947Z,3.56
2023-03-13T19:17:00.214Z,3.58
2023-03-13T19:19:27.608Z,3.56
2023-03-13T19:21:57.912Z,3.58
2023-03-13T19:24:27.825Z,3.55
2023-03-13T19:26:59.061Z,3.55
2023-03-13T19:29:28.766Z,3.49
2023-03-13T19:31:56.092Z,3.45
2023-03-13T19:34:24.007Z,3.37
2023-03-13T19:36:53.879Z,3.38
2023-03-13T19:39:26.756Z,3.31
2023-03-13T19:41:57.128Z,3.30
2023-03-13T19:44:27.680Z,3.24
2023-03-13T19:46:56.497Z,3.20
2023-03-13T19:49:23.814Z,3.16
2023-03-13T19:51:51.434Z,3.13
2023-03-13T19:54:18.822Z,3.08
2023-03-13T19:56:50.059Z,3.09
2023-03-13T19:59:20.088Z,3.10
2023-03-13T20:01:47.804Z,3.13
2023-03-13T20:04:15.666Z,3.08
2023-03-13T20:06:46.244Z,3.06
2023-03-13T20:09:16.952Z,3.04
2023-03-13T20:11:45.146Z,3.00
2023-03-13T20:14:14.582Z,2.92
2023-03-13T20:16:46.471Z,2.90
2023-03-13T20:19:19.319Z,2.83
2023-03-13T20:21:47.631Z,2.81
2023-03-13T20:24:15.894Z,2.79
2023-03-13T20:26:45.139Z,2.72
2023-03-13T20:29:12.780Z,2.72
2023-03-13T20:31:40.488Z,2.70
2023-03-13T20:34:09.282Z,2.63
2023-03-13T20:36:37.567Z,2.63
2023-03-13T20:39:05.801Z,2.62
2023-03-13T20:41:34.881Z,2.62
2023-03-13T20:44:02.645Z,2.63
2023-03-13T20:46:30.930Z,2.65
2023-03-13T20:48:59.065Z,2.64
2023-03-13T20:51:28.024Z,2.65
2023-03-13T20:53:55.507Z,2.68
2023-03-13T20:56:23.705Z,2.72
2023-03-13T20:58:50.855Z,2.85
2023-03-13T21:01:22.363Z,2.97
2023-03-13T21:03:49.693Z,3.06
2023-03-13T21:06:19.207Z,3.16
2023-03-13T21:08:47.694Z,3.23
2023-03-13T21:11:18.316Z,3.29
2023-03-13T21:13:46.553Z,3.35
2023-03-13T21:16:14.001Z,3.37
2023-03-13T21:18:41.498Z,3.32
2023-03-13T21:21:13.923Z,3.32
2023-03-13T21:23:43.978Z,3.20
2023-03-13T21:26:11.966Z,3.16
2023-03-13T21:28:40.358Z,3.16
2023-03-13T21:31:18.190Z,3.20
2023-03-13T21:33:47.724Z,3.22
2023-03-13T21:36:17.554Z,3.30
2023-03-13T21:38:45.377Z,3.37
2023-03-13T21:41:18.367Z,3.43
2023-03-13T21:43:45.913Z,3.48
2023-03-13T21:46:17.540Z,3.52
2023-03-13T21:51:18.276Z,3.66
2023-03-13T21:53:49.152Z,3.71
2023-03-13T21:56:17.487Z,3.71
2023-03-13T21:58:45.636Z,3.72
2023-03-13T22:01:15.008Z,3.83
2023-03-13T22:03:44.195Z,3.75
2023-03-13T22:06:17.870Z,3.74
2023-03-13T22:08:45.435Z,3.77
2023-03-13T22:11:12.644Z,3.77
2023-03-13T22:13:40.103Z,3.81
2023-03-13T22:16:07.992Z,3.77
2023-03-13T22:18:35.459Z,3.75
2023-03-13T22:21:02.749Z,3.74
2023-03-13T22:23:30.171Z,3.69
2023-03-13T22:25:58.850Z,3.61
2023-03-13T22:28:26.756Z,3.56
2023-03-13T22:30:54.151Z,3.53
2023-03-13T22:33:21.541Z,3.51
2023-03-13T22:35:55.057Z,3.51
2023-03-13T22:38:23.682Z,3.52
2023-03-13T22:41:03.303Z,3.51
2023-03-13T22:43:31.319Z,3.51
2023-03-13T22:45:59.635Z,3.52
2023-03-13T22:48:27.659Z,3.54
2023-03-13T22:51:13.515Z,3.58
2023-03-13T22:53:43.754Z,3.59
2023-03-13T22:56:12.777Z,3.58
2023-03-13T22:58:41.083Z,3.60
2023-03-13T23:01:11.511Z,3.56
2023-03-13T23:03:41.009Z,3.58
2023-03-13T23:06:14.580Z,3.61
2023-03-13T23:08:43.872Z,3.66
2023-03-13T23:11:11.422Z,3.62
2023-03-13T23:13:38.992Z,3.71
2023-03-13T23:16:11.367Z,3.66
2023-03-13T23:18:39.367Z,3.71
2023-03-13T23:21:08.952Z,3.69
2023-03-13T23:23:37.308Z,3.73
2023-03-13T23:26:07.841Z,3.76
2023-03-13T23:28:36.832Z,3.72
2023-03-13T23:31:16.151Z,3.82
2023-03-13T23:33:45.379Z,3.83
2023-03-13T23:36:16.997Z,3.83
2023-03-13T23:38:49.771Z,3.82
2023-03-13T23:41:17.071Z,3.89
2023-03-13T23:43:45.036Z,3.84
2023-03-13T23:46:22.173Z,3.86
2023-03-13T23:48:53.942Z,3.87
2023-03-13T23:51:21.194Z,3.83
2023-03-13T23:53:48.574Z,3.86
2023-03-13T23:56:16.098Z,3.87
2023-03-13T23:58:43.921Z,3.87
